Nichols, Iowa
Current Conditions -  °F | °C
As of 6:15 AM on Monday 26 Jan 2015 (Local Time) from KMUT Reporting Station
Overcast Overcast  
Wind Chill: 23°   Ceiling: 2500
Heat Index: 23°   Visibility: 10mi
Dew Point: 18°   Wind: 3mph
Humidity: 80%   Direction: 160°SSE
Pressure: 30"   Gusts: NA
Location:  41.48°N, 91.31°W
Report Text: KMUT 261215Z AUTO 16003KT 10SM OVC025 M05/M08 A3000 RMK AO2
Loading
Personal Weather Stations






























Interactive Weather Map New forecast layout! Learn more

10-Day Weather Forecast

Advertisements
Track Severe Weather on mobile